Flight Track Log - Related Links

Times and Time Zones

All times are in EDT time to prevent confusion due to time zone crossing. See the FFT403 flight status page for this flight to view local times or setup timezone preferences in your user account.

Time Position Orientation Groundspeed Altitude Reporting Facility
EDT Latitude Longitude Course Direction KTS MPH feet Rate Location/Type
Thu 11:00:36 AM 39.8333 -104.7667 252° West 184 212 6,800  Level Denver TRACON
Thu 11:01:36 AM 39.8167 -104.8333 252° West 242 278 8,200 1,758 Climbing Denver TRACON
Thu 11:02:15 AM 39.8014 -104.8958 252° West 267 307 9,700 2,257 Climbing Denver Center
Thu 11:03:17 AM 39.7675 -104.9950 246° West 301 346 12,000 3,048 Climbing Denver Center
Thu 11:04:19 AM 39.7292 -105.1056 246° West 302 348 16,000 2,691 Climbing Denver Center
Thu 11:05:33 AM 39.6958 -105.2058 247° West 303 349 18,100 1,941 Climbing Denver Center
Thu 11:06:35 AM 39.6489 -105.3408 246° West 331 381 20,400 2,208 Climbing Denver Center
Thu 11:07:38 AM 39.6078 -105.4581 246° West 340 391 22,700 1,694 Climbing Denver Center
Thu 11:08:39 AM 39.5781 -105.5464 246° West 348 400 23,900 1,742 Climbing Denver Center
Thu 11:09:42 AM 39.5317 -105.6886 247° West 356 410 26,300 2,112 Climbing Denver Center
Thu 11:10:44 AM 39.4986 -105.8094 251° West 354 407 28,300 1,694 Climbing Denver Center
Thu 11:11:46 AM 39.4606 -105.9506 251° West 354 407 29,800 1,147 Climbing Denver Center
Thu 11:13:00 AM 39.4267 -106.0758 251° West 365 420 30,900 1,103 Climbing Denver Center
Thu 11:14:02 AM 39.3844 -106.2228 250° West 374 430 32,300 1,210 Climbing Denver Center
Thu 11:15:04 AM 39.3444 -106.3633 250° West 374 430 33,400 1,161 Climbing Denver Center
Thu 11:16:06 AM 39.3094 -106.4867 250° West 380 437 34,700 1,056 Climbing Denver Center
Thu 11:17:09 AM 39.2689 -106.6306 250° West 382 440 35,600 1,007 Climbing Denver Center
Thu 11:18:23 AM 39.2256 -106.7453 244° Southwest 373 429 37,000 926 Climbing Denver Center
Thu 11:19:25 AM 39.1431 -106.8792 232° Southwest 373 429 37,700 484 Climbing Denver Center
Thu 11:20:27 AM 39.0789 -106.9794 231° Southwest 378 435 38,000 145 Climbing Denver Center
Thu 11:21:29 AM 39.0028 -107.0997 231° Southwest 384 442 38,000  Level Denver Center
Thu 11:22:31 AM 38.9392 -107.2014 231° Southwest 382 440 38,000  Level Denver Center
Thu 11:23:33 AM 38.8647 -107.3183 231° Southwest 379 436 38,000  Level Denver Center
Thu 11:24:35 AM 38.8006 -107.4178 230° Southwest 377 434 38,000  Level Denver Center
Thu 11:25:37 AM 38.7258 -107.5333 230° Southwest 376 433 38,000  Level Denver Center
Thu 11:26:39 AM 38.6625 -107.6336 231° Southwest 377 434 38,000  Level Denver Center
Thu 11:27:42 AM 38.5878 -107.7486 230° Southwest 375 432 38,000  Level Denver Center
Thu 11:28:44 AM 38.5244 -107.8467 230° Southwest 373 429 38,000  Level Denver Center
Thu 11:29:46 AM 38.4603 -107.9458 230° Southwest 376 433 38,000  Level Denver Center
Thu 11:30:48 AM 38.3858 -108.0603 230° Southwest 375 432 38,000  Level Denver Center
Thu 11:31:50 AM 38.3219 -108.1592 231° Southwest 375 432 38,000  Level Denver Center
Thu 11:32:52 AM 38.2469 -108.2717 230° Southwest 374 430 38,000  Level Denver Center
Thu 11:33:53 AM 38.1939 -108.3544 231° Southwest 377 434 38,000  Level Denver Center
Thu 11:34:56 AM 38.1081 -108.4836 230° Southwest 374 430 38,000  Level Denver Center
Thu 11:35:58 AM 38.0383 -108.5872 230° Southwest 375 432 38,000  Level Denver Center
Thu 11:37:00 AM 37.9736 -108.6811 229° Southwest 372 428 38,000  Level Denver Center
Thu 11:38:02 AM 37.8989 -108.7958 230° Southwest 376 433 38,000  Level Denver Center
Thu 11:39:04 AM 37.8447 -108.8758 229° Southwest 375 432 38,000  Level Denver Center
Thu 11:40:06 AM 37.7703 -109.0150 236° Southwest 373 429 38,000  Level Denver Center
Thu 11:41:08 AM 37.7219 -109.1264 241° Southwest 378 435 38,000  Level Denver Center
Thu 11:42:10 AM 37.6653 -109.2544 241° Southwest 376 433 38,000  Level Denver Center
Thu 11:43:37 AM 37.6075 -109.3839 241° Southwest 378 435 38,000  Level Denver Center
Thu 11:44:39 AM 37.5403 -109.5339 241° Southwest 385 443 38,000  Level Denver Center
Thu 11:45:41 AM 37.4811 -109.6650 240° Southwest 387 445 38,000  Level Denver Center
Thu 11:46:43 AM 37.4300 -109.7783 240° Southwest 390 449 38,000  Level Denver Center
Thu 11:47:45 AM 37.3708 -109.9072 240° Southwest 384 442 38,000  Level Denver Center
Thu 11:48:48 AM 37.3200 -110.0189 240° Southwest 386 444 38,000  Level Denver Center
Thu 11:49:50 AM 37.2619 -110.1489 241° Southwest 383 441 38,000  Level Denver Center
Thu 11:50:52 AM 37.2142 -110.2517 240° Southwest 383 441 38,000  Level Denver Center
Thu 11:51:54 AM 37.1486 -110.3928 240° Southwest 391 450 38,000  Level Denver Center
Thu 11:52:56 AM 37.0939 -110.5100 240° Southwest 390 449 38,000  Level Denver Center
Thu 11:53:58 AM 37.0397 -110.6281 240° Southwest 391 450 38,000  Level Denver Center
Thu 11:55:00 AM 36.9844 -110.7469 240° Southwest 394 453 38,000  Level Denver Center
Thu 11:56:02 AM 36.9300 -110.8656 240° Southwest 394 453 38,000  Level Denver Center
Thu 11:57:04 AM 36.8742 -110.9822 239° Southwest 391 450 38,000  Level Denver Center
Thu 11:58:06 AM 36.8078 -111.1233 240° Southwest 393 452 38,000  Level Denver Center
Thu 11:59:08 AM 36.7522 -111.2419 240° Southwest 393 452 38,000  Level Denver Center
Thu 12:00:10 PM 36.6981 -111.3586 240° Southwest 392 451 38,000  Level Denver Center
Thu 12:01:12 PM 36.6417 -111.4761 239° Southwest 393 452 38,000  Level Denver Center
Thu 12:02:14 PM 36.5869 -111.5950 240° Southwest 395 455 38,000  Level Denver Center
Thu 12:03:16 PM 36.5361 -111.7181 243° Southwest 398 458 38,000  Level Denver Center
Thu 12:04:19 PM 36.4850 -111.8403 243° Southwest 397 457 38,000  Level Denver Center
Thu 12:05:21 PM 36.4247 -111.9861 243° Southwest 397 457 38,000  Level Denver Center
Thu 12:06:23 PM 36.3733 -112.1061 242° Southwest 392 451 38,000  Level Los Angeles Center
Thu 12:07:25 PM 36.3228 -112.2281 243° Southwest 395 455 38,000  Level Los Angeles Center
Thu 12:08:27 PM 36.2700 -112.3514 242° Southwest 402 463 38,000  Level Los Angeles Center
Thu 12:09:29 PM 36.2178 -112.4747 242° Southwest 403 464 38,000  Level Los Angeles Center
Thu 12:10:31 PM 36.1647 -112.5989 242° Southwest 408 470 38,000  Level Los Angeles Center
Thu 12:11:33 PM 36.1025 -112.7444 242° Southwest 400 460 38,000  Level Los Angeles Center
Thu 12:12:35 PM 36.0506 -112.8653 242° Southwest 399 459 38,000  Level Los Angeles Center
Thu 12:13:37 PM 35.9994 -112.9858 242° Southwest 398 458 38,000  Level Los Angeles Center
Thu 12:14:39 PM 35.9517 -113.0989 242° Southwest 399 459 38,000  Level Los Angeles Center
Thu 12:15:41 PM 35.8867 -113.2456 241° Southwest 407 468 38,000  Level Los Angeles Center
Thu 12:16:43 PM 35.8344 -113.3658 242° Southwest 404 465 38,000  Level Los Angeles Center
Thu 12:17:45 PM 35.7817 -113.4861 242° Southwest 404 465 38,000  Level Los Angeles Center
Thu 12:18:47 PM 35.7400 -113.5833 242° Southwest 405 466 38,000  Level Los Angeles Center
Thu 12:19:50 PM 35.6764 -113.7275 242° Southwest 404 465 38,000  Level Los Angeles Center
Thu 12:20:52 PM 35.6119 -113.8719 241° Southwest 405 466 38,000  Level Los Angeles Center
Thu 12:21:54 PM 35.5589 -113.9914 241° Southwest 403 464 38,000  Level Los Angeles Center
Thu 12:22:56 PM 35.5058 -114.1106 241° Southwest 401 461 38,000  Level Los Angeles Center
Thu 12:23:58 PM 35.4525 -114.2300 241° Southwest 402 463 38,000  Level Los Angeles Center
Thu 12:25:00 PM 35.3922 -114.3644 241° Southwest 404 465 38,000  Level Los Angeles Center
Thu 12:26:02 PM 35.3372 -114.4861 241° Southwest 405 466 38,000  Level Los Angeles Center
Thu 12:27:04 PM 35.2831 -114.6075 241° Southwest 405 466 38,000  Level Los Angeles Center
Thu 12:28:06 PM 35.2272 -114.7283 241° Southwest 407 468 38,000  Level Los Angeles Center
Thu 12:29:09 PM 35.1608 -114.8736 241° Southwest 406 467 38,000  Level Los Angeles Center
Thu 12:30:11 PM 35.1064 -114.9939 241° Southwest 403 464 38,000  Level Los Angeles Center
Thu 12:31:13 PM 35.0519 -115.1144 241° Southwest 405 466 38,000  Level Los Angeles Center
Thu 12:32:15 PM 34.9958 -115.2353 240° Southwest 408 470 38,000  Level Los Angeles Center
Thu 12:33:17 PM 34.9436 -115.3492 241° Southwest 409 471 38,000  Level Los Angeles Center
Thu 12:34:19 PM 34.8833 -115.4786 240° Southwest 411 473 38,000  Level Los Angeles Center
Thu 12:35:21 PM 34.8200 -115.6156 241° Southwest 412 474 38,000  Level Los Angeles Center
Thu 12:36:23 PM 34.7628 -115.7369 240° Southwest 414 476 38,000  Level Los Angeles Center
Thu 12:37:26 PM 34.7061 -115.8572 240° Southwest 411 473 38,000  Level Los Angeles Center
Thu 12:38:28 PM 34.6500 -115.9778 241° Southwest 410 472 38,000 -484 Level Los Angeles Center
Thu 12:39:30 PM 34.5931 -116.0967 240° Southwest 408 470 37,000 -1,210 Descending Los Angeles Center
Thu 12:40:32 PM 34.5258 -116.2400 240° Southwest 407 468 35,500 -2,177 Descending Los Angeles Center
Thu 12:41:34 PM 34.4681 -116.3611 240° Southwest 414 476 32,500 -2,710 Descending Los Angeles Center
Thu 12:42:36 PM 34.4094 -116.4825 240° Southwest 416 479 29,900 -2,323 Descending Los Angeles Center
Thu 12:43:38 PM 34.3517 -116.6028 240° Southwest 413 475 27,700 -2,177 Descending Los Angeles Center
Thu 12:44:40 PM 34.2967 -116.7181 240° Southwest 399 459 25,400 -2,177 Descending Los Angeles Center
Thu 12:45:42 PM 34.2408 -116.8317 239° Southwest 394 453 23,200 -2,160 Descending Los Angeles Center
Thu 12:46:45 PM 34.1872 -116.9439 240° Southwest 388 447 20,900 -2,256 Descending Los Angeles Center
Thu 12:47:47 PM 34.1219 -117.0758 239° Southwest 381 438 18,500 -2,114 Descending Los Angeles Center
Thu 12:48:30 PM 34.0833 -117.1667 243° Southwest 371 427 17,200 -1,651 Descending Southern California TRACON
Thu 12:49:36 PM 34.0500 -117.2833 251° West 352 405 15,500 -1,600 Descending Southern California TRACON
Thu 12:50:30 PM 34.0333 -117.3833 259° West 348 400 14,000 -1,632 Descending Southern California TRACON
Thu 12:51:30 PM 34.0167 -117.5000 260° West 339 390 12,400 -1,500 Descending Southern California TRACON
Thu 12:52:30 PM 34.0167 -117.6167 270° West 413 475 11,000 -1,300 Descending Southern California TRACON
Thu 12:53:30 PM 34.0000 -117.7167 259° West 298 343 9,800 -1,368 Descending Southern California TRACON
Thu 12:54:24 PM 34.0000 -117.8000 270° West 293 337 8,400 -1,421 Descending Southern California TRACON
Thu 12:55:24 PM 33.9833 -117.9000 259° West 291 335 7,100 -1,000 Descending Southern California TRACON
Thu 12:56:24 PM 33.9833 -117.9833 270° West 257 296 6,400 -900 Descending Southern California TRACON
Thu 12:57:24 PM 33.9667 -118.0667 256° West 234 269 5,300 -1,200 Descending Southern California TRACON
Thu 12:58:24 PM 33.9667 -118.1333 270° West 211 243 4,000 -1,189 Descending Southern California TRACON
Thu 12:59:10 PM 33.9581 -118.1881 259° West 212 244 3,200 -1,000 Descending Los Angeles Center
Thu 01:00:12 PM 33.9508 -118.2519 262° West 200 230 2,200 -919 Descending Los Angeles Center
Thu 01:01:14 PM 33.9444 -118.3119 263° West 192 221 1,300 -871 Descending Los Angeles Center
Thu 01:02:16 PM 33.9406 -118.3642 265° West 149 171 400 -581 Descending Los Angeles Center
Thu 01:03:18 PM 33.9306 -118.4014 252° West 152 175 100 -290 Descending Los Angeles Center

Login

Don't have an account? Register now (free) for customized features, flight alerts, and more!